createdAt,value
2019-05-20T19:46:25.472Z,91.16
2019-05-20T19:48:53.847Z,91.35
2019-05-20T19:51:22.357Z,92.35
2019-05-20T19:53:50.700Z,93.31
2019-05-20T19:56:19.058Z,93.74
2019-05-20T19:58:47.364Z,93.93
2019-05-20T20:01:15.871Z,93.92
2019-05-20T20:03:44.264Z,93.44
2019-05-20T20:06:12.574Z,92.46
2019-05-20T20:08:41.224Z,91.88
2019-05-20T20:11:09.576Z,91.31
2019-05-20T20:13:37.898Z,90.77
2019-05-20T20:16:06.500Z,90.04
2019-05-20T20:18:34.862Z,89.37
2019-05-20T20:21:03.296Z,89.10
2019-05-20T20:23:31.764Z,88.75
2019-05-20T20:26:00.426Z,88.16
2019-05-20T20:28:28.899Z,87.71
2019-05-20T20:30:57.271Z,87.28
2019-05-20T20:33:25.754Z,87.16
2019-05-20T20:35:54.227Z,87.04
2019-05-20T20:38:22.527Z,86.71
2019-05-20T20:40:51.010Z,86.41
2019-05-20T20:43:19.611Z,86.24
2019-05-20T20:45:48.003Z,86.25
2019-05-20T20:48:16.424Z,86.26
2019-05-20T20:50:44.936Z,85.95
2019-05-20T20:53:13.258Z,85.87
2019-05-20T20:55:41.589Z,85.84
2019-05-20T20:58:09.988Z,85.97
2019-05-20T21:00:38.387Z,86.18
2019-05-20T21:03:06.900Z,86.30
2019-05-20T21:05:35.436Z,86.51
2019-05-20T21:08:03.864Z,86.64
2019-05-20T21:10:32.375Z,86.20
2019-05-20T21:13:00.740Z,86.28
2019-05-20T21:15:29.067Z,86.32
2019-05-20T21:17:57.469Z,86.40
2019-05-20T21:20:25.914Z,86.82
2019-05-20T21:22:54.528Z,86.90
2019-05-20T21:25:22.941Z,86.85
2019-05-20T21:27:51.293Z,86.72
2019-05-20T21:30:19.906Z,86.63
2019-05-20T21:32:48.310Z,86.55
2019-05-20T21:35:16.605Z,86.46
2019-05-20T21:37:45.043Z,86.40
2019-05-20T21:40:13.479Z,86.26
2019-05-20T21:42:41.780Z,86.34
2019-05-20T21:45:10.193Z,86.82
2019-05-20T21:47:38.579Z,86.63
2019-05-20T21:50:07.461Z,86.66
2019-05-20T21:52:35.777Z,86.58
2019-05-20T21:55:05.568Z,86.58
2019-05-20T21:57:34.164Z,86.78
2019-05-20T22:00:03.404Z,86.44
2019-05-20T22:02:31.776Z,86.32
2019-05-20T22:05:00.203Z,86.54
2019-05-20T22:07:28.847Z,86.67
2019-05-20T22:09:57.250Z,86.67
2019-05-20T22:12:25.663Z,86.69
2019-05-20T22:14:55.553Z,86.70
2019-05-20T22:17:24.151Z,86.69
2019-05-20T22:19:52.533Z,86.57
2019-05-20T22:22:41.826Z,86.54
2019-05-20T22:25:10.226Z,86.87
2019-05-20T22:27:38.543Z,87.12
2019-05-20T22:30:08.046Z,87.02
2019-05-20T22:32:36.498Z,86.77
2019-05-20T22:35:06.982Z,86.88
2019-05-20T22:37:35.588Z,86.80
2019-05-20T22:40:06.172Z,86.76
2019-05-20T22:42:34.722Z,86.97
2019-05-20T22:45:03.141Z,86.75
2019-05-20T22:47:31.463Z,86.93
2019-05-20T22:49:59.885Z,86.74
2019-05-20T22:52:28.335Z,86.61
2019-05-20T22:54:56.805Z,86.72
2019-05-20T22:57:25.126Z,87.12
2019-05-20T22:59:53.492Z,86.93
2019-05-20T23:02:21.833Z,86.98
2019-05-20T23:04:50.212Z,87.18
2019-05-20T23:07:18.612Z,86.95
2019-05-20T23:09:47.085Z,87.10
2019-05-20T23:12:15.488Z,86.99
2019-05-20T23:14:43.787Z,86.93
2019-05-20T23:17:12.209Z,87.23
2019-05-20T23:19:40.579Z,87.27
2019-05-20T23:22:08.920Z,87.31
2019-05-20T23:24:37.423Z,87.29
2019-05-20T23:27:07.065Z,87.04
2019-05-20T23:29:35.360Z,87.29
2019-05-20T23:32:03.740Z,87.44
2019-05-20T23:34:32.175Z,87.65
2019-05-20T23:37:00.638Z,87.47
2019-05-20T23:39:29.032Z,87.05
2019-05-20T23:41:57.325Z,87.05
2019-05-20T23:44:25.703Z,87.08
2019-05-20T23:46:54.077Z,87.28
2019-05-20T23:49:22.588Z,86.90
2019-05-20T23:51:51.079Z,86.59
2019-05-20T23:54:19.447Z,86.30
2019-05-20T23:56:47.750Z,86.45
2019-05-20T23:59:16.076Z,86.48
